Time;durP1;ratioP1;P1;durP2;ratioP2;P2;SDS_P1;SDS_P2;PMS_P1;PMS_P2;Temp;Humidity;BMP_temperature;BMP_pressure;BME280_temperature;BME280_humidity;BME280_pressure;Samples;Min_cycle;Max_cycle;Signal;HPM_P1;HPM_P2
2021/10/03 00:02:01;;;;;;;24.33;20.13;;;;;;;12.40;75.17;97524.69;6267902;28;20684;-73
2021/10/03 00:05:04;;;;;;;25.03;21.03;;;;;;;12.43;74.64;97533.19;6267704;28;20198;-73
2021/10/03 00:08:07;;;;;;;24.10;20.33;;;;;;;12.61;74.35;97527.22;6267221;28;20230;-73
2021/10/03 00:11:10;;;;;;;23.33;20.23;;;;;;;12.65;74.21;97537.41;6266745;28;20225;-73
2021/10/03 00:14:12;;;;;;;26.90;21.13;;;;;;;12.68;74.23;97541.56;6266501;28;20271;-73
2021/10/03 00:17:14;;;;;;;23.93;19.73;;;;;;;12.65;74.11;97534.75;6264438;28;20567;-73
2021/10/03 00:20:18;;;;;;;21.83;19.03;;;;;;;12.63;73.81;97531.41;6241898;28;20330;-74
2021/10/03 00:23:21;;;;;;;21.73;18.77;;;;;;;12.62;74.21;97505.88;6241352;28;20202;-73
2021/10/03 00:26:23;;;;;;;27.80;21.43;;;;;;;12.55;74.40;97507.44;6242474;28;20223;-73
2021/10/03 00:29:26;;;;;;;27.67;20.57;;;;;;;12.60;73.74;97504.34;6252480;28;20202;-73
2021/10/03 00:32:28;;;;;;;21.27;18.33;;;;;;;12.60;73.89;97502.53;6272728;28;20201;-73
2021/10/03 00:35:30;;;;;;;21.30;17.07;;;;;;;12.57;74.28;97508.13;6270881;28;20566;-73
2021/10/03 00:38:32;;;;;;;20.70;17.90;;;;;;;12.48;74.25;97503.66;6270517;28;20190;-72
2021/10/03 00:41:34;;;;;;;21.17;18.27;;;;;;;12.30;74.80;97506.16;6272731;28;20421;-72
2021/10/03 00:44:36;;;;;;;22.60;18.03;;;;;;;12.29;75.34;97514.22;6270236;28;20189;-73
2021/10/03 00:47:38;;;;;;;20.60;18.33;;;;;;;12.23;75.37;97507.69;6270457;28;20208;-72
2021/10/03 00:50:43;;;;;;;24.17;19.33;;;;;;;12.08;75.98;97519.63;6271453;28;20210;-72
2021/10/03 00:53:45;;;;;;;23.40;19.00;;;;;;;11.97;76.28;97517.13;6271952;28;20302;-72
2021/10/03 00:56:48;;;;;;;19.87;17.07;;;;;;;11.85;76.65;97505.81;6271153;28;20198;-72
2021/10/03 00:59:50;;;;;;;19.97;16.17;;;;;;;11.72;76.55;97499.91;6269806;28;20187;-72
2021/10/03 01:02:53;;;;;;;17.37;14.87;;;;;;;11.61;76.69;97503.47;6268682;28;20216;-72
2021/10/03 01:05:55;;;;;;;20.27;17.27;;;;;;;11.51;77.00;97501.75;6268744;28;20202;-72
2021/10/03 01:08:58;;;;;;;23.00;17.97;;;;;;;11.38;77.33;97492.25;6269356;28;20260;-72
2021/10/03 01:12:00;;;;;;;19.77;16.23;;;;;;;11.25;77.64;97491.66;6270059;28;20192;-72
2021/10/03 01:15:05;;;;;;;19.77;16.93;;;;;;;11.12;78.09;97484.91;6269897;28;20210;-72
2021/10/03 01:18:08;;;;;;;20.80;17.37;;;;;;;11.01;78.00;97493.75;6252449;28;20193;-73
2021/10/03 01:21:10;;;;;;;21.10;18.50;;;;;;;10.92;78.62;97494.53;6246614;28;20351;-72
2021/10/03 01:24:14;;;;;;;22.70;19.30;;;;;;;10.86;78.28;97493.25;6245324;28;20201;-72
2021/10/03 01:27:16;;;;;;;22.13;18.10;;;;;;;10.75;78.61;97480.13;6245939;28;20248;-72
2021/10/03 01:30:19;;;;;;;21.97;19.30;;;;;;;10.65;79.30;97482.69;6260756;28;20207;-72
2021/10/03 01:33:27;;;;;;;23.90;18.87;;;;;;;10.60;79.17;97484.03;6271506;28;20629;-72
2021/10/03 01:36:29;;;;;;;19.13;16.27;;;;;;;10.54;79.29;97484.53;6271002;28;20176;-73
2021/10/03 01:39:31;;;;;;;19.20;15.70;;;;;;;10.47;79.61;97476.31;6270623;28;20188;-72
2021/10/03 01:42:33;;;;;;;19.77;16.73;;;;;;;10.43;79.17;97479.31;6270989;28;20189;-73
2021/10/03 01:45:35;;;;;;;19.27;16.47;;;;;;;10.37;79.87;97483.31;6270271;28;20546;-73
2021/10/03 01:48:37;;;;;;;20.30;16.80;;;;;;;10.32;80.04;97474.94;6271005;28;20229;-72
2021/10/03 01:51:39;;;;;;;23.33;17.50;;;;;;;10.27;80.08;97474.50;6270822;28;20205;-72
2021/10/03 01:54:42;;;;;;;24.03;18.37;;;;;;;10.15;80.38;97472.81;6270845;28;20195;-72
2021/10/03 01:57:44;;;;;;;19.93;16.13;;;;;;;10.08;80.07;97471.66;6270423;28;20192;-72
2021/10/03 02:00:48;;;;;;;25.97;19.23;;;;;;;10.05;80.64;97469.25;6270536;28;20238;-72
2021/10/03 02:03:51;;;;;;;22.20;16.53;;;;;;;9.99;80.35;97468.78;6245631;28;20714;-72
2021/10/03 02:06:55;;;;;;;17.80;15.37;;;;;;;9.96;79.86;97465.56;6266495;28;20188;-72
2021/10/03 02:09:57;;;;;;;23.43;18.00;;;;;;;9.90;80.85;97463.41;6270699;28;20201;-73
2021/10/03 02:12:59;;;;;;;19.30;15.40;;;;;;;9.84;81.05;97456.84;6270284;28;20559;-72
2021/10/03 02:16:02;;;;;;;26.63;19.03;;;;;;;9.77;81.26;97450.41;6257584;28;20234;-72
2021/10/03 02:19:04;;;;;;;22.90;18.37;;;;;;;9.70;80.67;97449.22;6245492;28;20200;-72
2021/10/03 02:22:08;;;;;;;24.00;18.87;;;;;;;9.60;81.39;97446.47;6244266;28;20231;-73
2021/10/03 02:25:12;;;;;;;18.33;15.77;;;;;;;9.54;80.39;97448.78;6243734;28;20192;-73
2021/10/03 02:28:22;;;;;;;21.07;16.17;;;;;;;9.51;81.70;97438.47;6244677;28;20279;-73
2021/10/03 02:31:24;;;;;;;22.57;18.17;;;;;;;9.52;81.19;97438.34;6269606;28;20659;-73
2021/10/03 02:34:26;;;;;;;23.87;19.17;;;;;;;9.52;81.51;97438.34;6285298;28;20193;-73
2021/10/03 02:37:29;;;;;;;19.20;15.30;;;;;;;9.48;81.02;97436.91;6251718;28;20229;-73
2021/10/03 02:40:31;;;;;;;21.40;16.20;;;;;;;9.45;80.64;97441.59;6269516;28;20187;-72
2021/10/03 02:43:35;;;;;;;21.93;16.40;;;;;;;9.41;81.58;97440.16;6269497;28;20705;-73
2021/10/03 02:46:37;;;;;;;22.23;16.80;;;;;;;9.36;81.37;97440.53;6267396;28;20203;-73
2021/10/03 02:49:41;;;;;;;23.47;17.83;;;;;;;9.32;81.57;97428.56;6269158;28;20218;-72
2021/10/03 02:52:44;;;;;;;19.93;17.03;;;;;;;9.30;81.55;97445.44;6268761;28;20194;-73
2021/10/03 02:55:47;;;;;;;22.03;17.47;;;;;;;9.19;81.78;97441.03;6268777;28;20191;-73
2021/10/03 02:58:49;;;;;;;20.50;16.20;;;;;;;9.15;81.84;97439.59;6268932;28;20199;-73
2021/10/03 03:01:51;;;;;;;21.07;17.40;;;;;;;9.10;82.34;97439.94;6269203;28;20215;-72
2021/10/03 03:04:53;;;;;;;22.47;18.13;;;;;;;9.09;81.87;97435.63;6268755;28;20577;-73
2021/10/03 03:07:55;;;;;;;22.77;17.40;;;;;;;9.07;81.56;97436.72;6268418;28;20223;-73
2021/10/03 03:10:57;;;;;;;22.73;17.47;;;;;;;9.04;82.11;97435.16;6268988;28;20249;-72
2021/10/03 03:13:59;;;;;;;25.23;19.47;;;;;;;9.03;82.05;97432.66;6268695;28;20198;-72
2021/10/03 03:17:17;;;;;;;26.07;19.27;;;;;;;8.99;82.46;97433.84;6264687;28;20636;-73
2021/10/03 03:20:19;;;;;;;19.43;15.63;;;;;;;8.91;81.83;97429.19;6244368;28;20179;-73
2021/10/03 03:23:21;;;;;;;19.73;15.63;;;;;;;8.87;82.26;97431.22;6243969;28;20409;-73
2021/10/03 03:26:23;;;;;;;20.73;15.53;;;;;;;8.84;82.28;97436.72;6243201;28;20572;-73
2021/10/03 03:29:25;;;;;;;24.30;17.30;;;;;;;8.81;82.38;97433.47;6251706;28;20197;-72
2021/10/03 03:32:27;;;;;;;21.03;16.37;;;;;;;8.75;82.08;97429.53;6259168;28;20599;-72
2021/10/03 03:35:29;;;;;;;21.07;15.50;;;;;;;8.71;82.48;97428.09;6254989;28;20213;-73
2021/10/03 03:38:35;;;;;;;23.40;17.40;;;;;;;8.68;82.27;97433.59;6266907;28;20619;-72
2021/10/03 03:41:37;;;;;;;19.53;15.67;;;;;;;8.67;82.24;97436.34;6268413;28;20183;-73
2021/10/03 03:44:43;;;;;;;23.57;17.03;;;;;;;8.63;82.12;97434.91;6266828;28;20290;-73
2021/10/03 03:47:45;;;;;;;21.20;16.63;;;;;;;8.57;82.61;97436.22;6266890;28;20745;-72
2021/10/03 03:50:47;;;;;;;20.77;16.80;;;;;;;8.54;82.29;97449.59;6242600;28;20234;-72
2021/10/03 03:53:49;;;;;;;22.43;17.13;;;;;;;8.50;82.52;97443.72;6263702;28;20675;-73
2021/10/03 03:56:51;;;;;;;21.33;15.53;;;;;;;8.47;82.59;97443.13;6262245;28;20195;-73
2021/10/03 03:59:53;;;;;;;22.27;17.00;;;;;;;8.43;82.45;97447.75;6256183;28;20221;-73
2021/10/03 04:02:55;;;;;;;19.57;15.00;;;;;;;8.39;82.13;97453.34;6267949;28;20214;-73
2021/10/03 04:05:57;;;;;;;20.67;15.43;;;;;;;8.36;82.16;97448.34;6266093;28;20191;-73
2021/10/03 04:08:59;;;;;;;22.40;16.53;;;;;;;8.41;81.98;97440.94;6267192;28;20241;-73
2021/10/03 04:12:01;;;;;;;20.97;17.37;;;;;;;8.42;81.85;97445.25;6266565;28;20738;-72
2021/10/03 04:15:06;;;;;;;24.87;17.87;;;;;;;8.42;82.23;97438.19;6267495;28;20346;-72
2021/10/03 04:18:08;;;;;;;22.97;17.00;;;;;;;8.46;82.46;97439.66;6244342;28;20794;-73
2021/10/03 04:21:10;;;;;;;23.20;17.57;;;;;;;8.55;82.53;97429.38;6243097;28;20206;-72
2021/10/03 04:24:12;;;;;;;22.23;17.97;;;;;;;8.60;82.47;97437.75;6242995;28;20196;-72
2021/10/03 04:27:14;;;;;;;25.47;18.90;;;;;;;8.66;81.86;97424.97;6240907;28;20200;-72
2021/10/03 04:30:16;;;;;;;25.77;19.03;;;;;;;8.76;82.01;97418.06;6256845;28;20600;-73
2021/10/03 04:33:18;;;;;;;24.60;18.73;;;;;;;8.84;81.95;97433.25;6266218;28;20188;-73
2021/10/03 04:36:20;;;;;;;24.47;17.70;;;;;;;8.91;82.29;97430.97;6267034;28;20328;-73
2021/10/03 04:39:22;;;;;;;26.27;18.97;;;;;;;8.99;82.08;97428.56;6267555;28;20326;-72
2021/10/03 04:42:24;;;;;;;21.17;16.40;;;;;;;9.06;82.02;97427.16;6267551;28;20543;-73
2021/10/03 04:45:26;;;;;;;27.03;19.47;;;;;;;9.14;82.59;97428.22;6267195;28;20199;-73
2021/10/03 04:48:28;;;;;;;22.67;17.87;;;;;;;9.21;82.75;97433.84;6265485;28;20199;-73
2021/10/03 04:51:30;;;;;;;25.37;19.63;;;;;;;9.30;82.64;97427.00;6267186;28;20215;-73
2021/10/03 04:54:32;;;;;;;26.13;19.67;;;;;;;9.36;82.12;97437.91;6266755;28;20700;-74
2021/10/03 04:57:34;;;;;;;24.40;19.33;;;;;;;9.44;82.63;97430.22;6266805;28;20191;-72
2021/10/03 05:00:36;;;;;;;19.87;17.23;;;;;;;9.53;82.47;97433.94;6267085;28;20209;-73
2021/10/03 05:03:38;;;;;;;26.57;19.57;;;;;;;9.60;82.51;97428.03;6249788;28;20678;-73
2021/10/03 05:06:40;;;;;;;20.77;17.87;;;;;;;9.67;82.41;97424.94;6242356;28;20279;-73
2021/10/03 05:09:42;;;;;;;24.83;19.53;;;;;;;9.74;81.78;97421.66;6262445;28;20562;-73
2021/10/03 05:12:44;;;;;;;23.97;19.47;;;;;;;9.81;82.57;97429.91;6267350;28;20191;-73
2021/10/03 05:15:46;;;;;;;26.13;20.23;;;;;;;9.88;81.96;97428.47;6266765;28;20203;-73
2021/10/03 05:18:48;;;;;;;30.30;22.40;;;;;;;9.94;82.16;97436.69;6270085;28;20183;-73
2021/10/03 05:21:50;;;;;;;36.50;27.17;;;;;;;9.97;82.97;97433.81;6270757;28;20191;-73
2021/10/03 05:24:53;;;;;;;38.63;27.23;;;;;;;9.98;83.20;97440.75;6269807;28;20195;-73
2021/10/03 05:27:55;;;;;;;33.63;25.40;;;;;;;10.02;83.17;97432.59;6270181;28;20195;-73
2021/10/03 05:30:57;;;;;;;30.00;23.30;;;;;;;10.14;83.12;97436.84;6270801;28;20211;-73
2021/10/03 05:33:59;;;;;;;28.47;22.23;;;;;;;10.20;82.94;97441.66;6261183;28;20285;-73
2021/10/03 05:37:02;;;;;;;32.33;25.53;;;;;;;10.25;82.62;97432.41;6256373;28;20211;-72
2021/10/03 05:40:05;;;;;;;28.17;21.50;;;;;;;10.32;83.20;97427.44;6270080;28;20198;-73
2021/10/03 05:43:07;;;;;;;28.87;22.17;;;;;;;10.40;82.45;97429.44;6259401;28;20202;-73
2021/10/03 05:46:09;;;;;;;30.30;23.03;;;;;;;10.46;82.59;97436.88;6268357;28;20201;-73
2021/10/03 05:49:11;;;;;;;30.00;22.73;;;;;;;10.51;82.35;97434.66;6270426;28;20666;-73
2021/10/03 05:52:13;;;;;;;34.23;25.70;;;;;;;10.55;82.64;97429.00;6268899;28;20253;-73
2021/10/03 05:55:15;;;;;;;32.40;24.00;;;;;;;10.56;81.91;97435.97;6270346;28;20191;-73
2021/10/03 05:58:17;;;;;;;24.33;19.30;;;;;;;10.59;82.48;97430.41;6270231;28;20201;-73
2021/10/03 06:01:19;;;;;;;32.73;23.37;;;;;;;10.61;82.15;97425.84;6270068;28;20709;-73
2021/10/03 06:04:22;;;;;;;31.03;23.73;;;;;;;10.67;82.04;97421.88;6270229;28;20603;-74
2021/10/03 06:07:24;;;;;;;32.60;23.63;;;;;;;10.77;81.76;97429.84;6268888;28;20231;-73
2021/10/03 06:10:26;;;;;;;34.83;25.20;;;;;;;10.84;81.77;97423.91;6270134;28;20564;-73
2021/10/03 06:13:28;;;;;;;30.70;23.77;;;;;;;10.81;81.43;97429.44;6269724;28;20216;-74
2021/10/03 06:16:30;;;;;;;25.00;19.93;;;;;;;10.84;81.61;97430.97;6263530;28;20190;-73
2021/10/03 06:19:32;;;;;;;31.87;22.70;;;;;;;10.91;81.41;97432.97;6243898;28;20319;-72
2021/10/03 06:22:34;;;;;;;29.73;21.80;;;;;;;10.92;81.54;97432.00;6243142;28;20184;-73
2021/10/03 06:25:36;;;;;;;27.10;20.57;;;;;;;10.96;81.35;97427.28;6242932;28;20200;-73
2021/10/03 06:28:38;;;;;;;27.93;21.87;;;;;;;11.04;80.96;97433.59;6243606;28;20291;-73
2021/10/03 06:31:40;;;;;;;27.53;21.70;;;;;;;11.11;81.12;97439.16;6268106;28;20216;-73
2021/10/03 06:34:42;;;;;;;30.67;23.93;;;;;;;11.22;80.62;97444.38;6267390;28;20549;-73
2021/10/03 06:37:44;;;;;;;29.77;23.07;;;;;;;11.21;80.57;97447.13;6268881;28;20226;-73
2021/10/03 06:40:46;;;;;;;32.03;24.37;;;;;;;11.18;80.40;97450.88;6268517;28;20230;-73
2021/10/03 06:43:51;;;;;;;27.57;22.27;;;;;;;11.20;80.08;97459.50;6269185;28;20188;-73
2021/10/03 06:46:53;;;;;;;29.17;22.47;;;;;;;11.21;80.24;97453.25;6268813;28;20556;-73
2021/10/03 06:49:55;;;;;;;34.03;25.50;;;;;;;11.25;79.99;97459.13;6267349;28;20199;-73
2021/10/03 06:52:57;;;;;;;33.17;24.47;;;;;;;11.29;79.82;97456.06;6268729;28;20582;-72
2021/10/03 06:56:00;;;;;;;27.43;21.93;;;;;;;11.40;79.84;97461.25;6266755;28;20192;-73
2021/10/03 06:59:03;;;;;;;33.23;24.63;;;;;;;11.51;79.34;97456.84;6268722;28;20192;-73
2021/10/03 07:02:24;;;;;;;31.63;24.97;;;;;;;11.42;79.29;97461.13;6267419;28;20220;-73
2021/10/03 07:05:26;;;;;;;28.17;20.27;;;;;;;11.55;79.45;97452.97;6266786;28;20201;-73
2021/10/03 07:08:29;;;;;;;27.10;21.30;;;;;;;11.86;78.51;97462.53;6266082;28;20684;-73
2021/10/03 07:11:31;;;;;;;27.57;22.17;;;;;;;12.15;77.70;97460.78;6267536;28;20209;-72
2021/10/03 07:14:34;;;;;;;24.77;19.73;;;;;;;12.42;76.87;97464.53;6267576;28;20189;-72
2021/10/03 07:17:36;;;;;;;22.07;18.93;;;;;;;12.63;76.15;97464.38;6240869;28;20751;-73
2021/10/03 07:20:39;;;;;;;22.93;18.40;;;;;;;12.76;75.70;97460.47;6264285;28;20653;-72
2021/10/03 07:23:41;;;;;;;27.60;21.77;;;;;;;12.91;75.41;97455.53;6266623;28;20281;-73
2021/10/03 07:26:44;;;;;;;23.77;19.57;;;;;;;13.04;74.79;97453.41;6266663;28;20201;-73
2021/10/03 07:29:46;;;;;;;29.23;23.20;;;;;;;13.00;73.74;97456.47;6267017;28;20627;-73
2021/10/03 07:32:48;;;;;;;26.23;20.77;;;;;;;12.86;74.25;97447.19;6267035;28;20251;-73
2021/10/03 07:35:50;;;;;;;26.47;23.00;;;;;;;12.81;74.22;97439.66;6264076;28;20186;-73
2021/10/03 07:38:52;;;;;;;22.73;18.93;;;;;;;12.71;74.75;97451.25;6265938;28;20320;-73
2021/10/03 07:41:54;;;;;;;21.93;17.90;;;;;;;12.73;74.69;97452.78;6266981;28;20264;-72
2021/10/03 07:44:56;;;;;;;23.30;18.70;;;;;;;12.86;74.62;97455.16;6266485;28;20205;-73
2021/10/03 07:47:58;;;;;;;25.77;21.87;;;;;;;12.91;73.61;97450.25;6266660;28;20194;-73
2021/10/03 07:51:00;;;;;;;26.50;20.50;;;;;;;12.83;74.37;97458.91;6267881;28;20218;-73
2021/10/03 07:54:02;;;;;;;25.80;21.60;;;;;;;12.82;73.79;97459.03;6267681;28;20191;-73
2021/10/03 07:57:04;;;;;;;29.60;23.07;;;;;;;13.04;73.37;97455.22;6265920;28;20198;-73
2021/10/03 08:00:07;;;;;;;27.03;21.33;;;;;;;13.40;72.83;97450.94;6265385;28;20229;-73
2021/10/03 08:03:09;;;;;;;28.70;21.73;;;;;;;13.75;71.26;97445.75;6267546;28;20207;-73
2021/10/03 08:06:12;;;;;;;25.80;20.10;;;;;;;13.98;70.58;97446.97;6266123;28;20199;-73
2021/10/03 08:09:14;;;;;;;23.20;19.43;;;;;;;14.00;70.98;97449.47;6265624;28;20234;-73
2021/10/03 08:12:16;;;;;;;23.57;19.37;;;;;;;14.34;69.95;97447.84;6267154;28;20217;-73
2021/10/03 08:15:21;;;;;;;28.20;22.10;;;;;;;14.49;68.85;97450.81;6266978;28;20340;-73
2021/10/03 08:18:23;;;;;;;21.70;19.00;;;;;;;14.68;68.71;97453.28;6252113;28;20184;-73
2021/10/03 08:21:27;;;;;;;25.13;19.27;;;;;;;14.97;67.68;97444.22;6260622;28;20187;-73
2021/10/03 08:24:31;;;;;;;24.90;20.03;;;;;;;14.88;66.82;97451.28;6267411;28;20218;-73
2021/10/03 08:27:35;;;;;;;25.27;21.83;;;;;;;15.00;67.32;97451.84;6267039;28;20184;-73
2021/10/03 08:30:37;;;;;;;22.13;19.03;;;;;;;15.08;66.95;97452.75;6267087;28;20207;-73
2021/10/03 08:33:39;;;;;;;22.23;19.10;;;;;;;15.49;66.10;97443.16;6266240;28;20770;-73
2021/10/03 08:36:41;;;;;;;23.07;18.27;;;;;;;15.86;65.10;97452.66;6267989;28;20198;-73
2021/10/03 08:39:43;;;;;;;20.57;17.40;;;;;;;16.13;64.19;97451.56;6274610;28;20274;-73
2021/10/03 08:42:45;;;;;;;23.47;18.87;;;;;;;16.29;62.85;97456.06;6266939;28;20195;-73
2021/10/03 08:45:49;;;;;;;24.00;19.70;;;;;;;16.19;62.95;97459.72;6279631;28;20195;-73
2021/10/03 08:49:01;;;;;;;22.90;17.67;;;;;;;16.27;62.58;97447.44;6271759;28;20200;-73
2021/10/03 08:52:04;;;;;;;18.87;16.13;;;;;;;16.31;62.90;97444.25;6255402;28;20211;-73
2021/10/03 08:55:08;;;;;;;22.40;17.07;;;;;;;16.83;61.54;97431.47;6272645;28;20191;-73
2021/10/03 08:58:10;;;;;;;18.03;15.07;;;;;;;17.15;61.26;97435.09;6272582;28;20199;-73
2021/10/03 09:01:13;;;;;;;17.77;15.87;;;;;;;17.51;60.59;97433.63;6272995;28;20223;-73
2021/10/03 09:04:30;;;;;;;15.87;13.60;;;;;;;17.96;59.43;97437.47;6271569;28;20594;-73
2021/10/03 09:07:32;;;;;;;15.53;13.33;;;;;;;18.40;59.06;97433.19;6270775;28;20234;-73
2021/10/03 09:10:53;;;;;;;17.97;16.07;;;;;;;18.13;56.97;97425.69;6272505;28;20203;-73
2021/10/03 09:13:56;;;;;;;16.70;14.70;;;;;;;17.91;57.69;97423.81;6271113;28;20208;-73
2021/10/03 09:16:59;;;;;;;18.80;15.63;;;;;;;18.46;57.43;97428.97;6257765;28;20203;-73
2021/10/03 09:20:18;;;;;;;14.37;12.87;;;;;;;18.91;56.89;97422.75;6245996;28;20196;-73
2021/10/03 09:23:21;;;;;;;16.50;13.90;;;;;;;19.36;56.18;97431.69;6246195;28;20565;-73
2021/10/03 09:26:25;;;;;;;16.90;15.10;;;;;;;19.39;55.02;97426.75;6243566;28;20197;-73
2021/10/03 09:29:32;;;;;;;16.03;13.77;;;;;;;19.30;54.75;97430.56;6247643;28;20682;-73
2021/10/03 09:32:34;;;;;;;15.03;12.90;;;;;;;19.36;55.47;97429.00;6272218;28;20192;-72
2021/10/03 09:35:36;;;;;;;13.83;11.93;;;;;;;19.74;55.66;97422.53;6270615;28;20194;-73
2021/10/03 09:38:44;;;;;;;12.23;11.03;;;;;;;20.06;54.51;97428.50;6270911;28;20196;-73
2021/10/03 09:41:46;;;;;;;14.87;13.30;;;;;;;19.84;53.66;97419.56;6271945;28;20191;-73
2021/10/03 09:45:09;;;;;;;16.00;12.73;;;;;;;19.94;55.21;97425.47;6270405;28;20495;-73
2021/10/03 09:48:11;;;;;;;14.83;13.33;;;;;;;20.15;53.60;97406.75;6271507;28;20659;-73
2021/10/03 09:51:14;;;;;;;13.50;12.10;;;;;;;20.34;53.17;97410.66;6271475;28;20207;-72
2021/10/03 09:54:18;;;;;;;14.60;13.03;;;;;;;20.56;52.70;97404.25;6270527;28;20587;-72
2021/10/03 09:57:20;;;;;;;13.47;12.17;;;;;;;20.90;52.96;97394.66;6271173;28;20187;-73
2021/10/03 10:00:28;;;;;;;11.87;10.67;;;;;;;21.10;52.60;97401.00;6271169;28;20223;-73
2021/10/03 10:03:31;;;;;;;13.60;12.20;;;;;;;21.12;52.38;97388.22;6271501;28;20642;-73
2021/10/03 10:06:33;;;;;;;13.83;12.30;;;;;;;20.96;53.33;97392.00;6246385;28;20679;-73
2021/10/03 10:09:37;;;;;;;16.87;13.83;;;;;;;20.98;52.19;97392.66;6268170;28;20231;-73
2021/10/03 10:12:46;;;;;;;13.73;12.43;;;;;;;20.90;53.60;97386.59;6269621;28;20222;-73
2021/10/03 10:15:49;;;;;;;14.60;12.23;;;;;;;21.19;52.95;97389.09;6271194;28;20203;-73
2021/10/03 10:18:51;;;;;;;11.90;10.70;;;;;;;21.66;52.42;97379.47;6266316;28;20726;-73
2021/10/03 10:22:11;;;;;;;12.73;10.77;;;;;;;22.24;51.16;97378.00;6261798;28;20663;-73
2021/10/03 10:25:17;;;;;;;13.67;10.90;;;;;;;22.44;50.60;97376.19;6245229;28;20192;-70
2021/10/03 10:28:23;;;;;;;12.93;11.33;;;;;;;22.65;50.17;97363.56;6245774;28;20281;-73
2021/10/03 10:31:25;;;;;;;12.57;10.80;;;;;;;22.21;48.61;97364.97;6247447;28;20207;-73
2021/10/03 10:34:27;;;;;;;13.33;10.37;;;;;;;21.92;50.67;97352.66;6267678;28;20206;-73
2021/10/03 10:37:51;;;;;;;11.63;10.43;;;;;;;22.17;51.12;97357.50;6266749;28;20203;-73
2021/10/03 10:40:53;;;;;;;13.40;11.10;;;;;;;22.78;50.16;97355.50;6268097;28;20713;-72
2021/10/03 10:43:55;;;;;;;10.47;9.47;;;;;;;23.16;49.64;97351.09;6268922;28;20198;-73
2021/10/03 10:47:13;;;;;;;10.23;9.13;;;;;;;23.71;49.31;97356.97;6269204;28;20276;-71
2021/10/03 10:50:15;;;;;;;9.97;8.97;;;;;;;24.23;47.79;97363.16;6270492;28;20191;-72
2021/10/03 10:53:32;;;;;;;10.00;9.07;;;;;;;24.44;47.89;97351.19;6269976;28;20758;-73
2021/10/03 10:56:34;;;;;;;9.00;8.17;;;;;;;24.50;45.98;97347.63;6270043;28;20694;-72
2021/10/03 11:00:24;;;;;;;8.87;8.03;;;;;;;24.74;44.44;97352.19;6269853;28;20183;-72
2021/10/03 11:03:44;;;;;;;8.73;7.67;;;;;;;24.74;46.21;97341.41;6217462;28;20598;-72
2021/10/03 11:06:47;;;;;;;9.13;7.83;;;;;;;25.12;45.55;97335.06;6216781;28;20192;-72
2021/10/03 11:10:00;;;;;;;7.63;6.83;;;;;;;25.08;43.13;97331.97;6217054;28;20521;-72
2021/10/03 11:13:40;;;;;;;7.80;6.37;;;;;;;25.39;43.77;97331.00;6216454;28;20275;-72
2021/10/03 11:16:49;;;;;;;6.57;6.07;;;;;;;25.26;42.48;97314.94;6216853;28;20581;-72
2021/10/03 11:19:52;;;;;;;7.57;6.75;;;;;;;25.57;43.18;97311.25;6200791;28;20894;-72
2021/10/03 11:22:54;;;;;;;6.72;6.03;;;;;;;26.00;43.14;97303.00;6216968;28;20645;-72
2021/10/03 11:26:00;;;;;;;6.75;6.15;;;;;;;26.36;43.20;97307.47;6217005;28;20556;-72
2021/10/03 11:29:03;;;;;;;7.55;6.75;;;;;;;26.51;42.82;97302.47;6216829;28;20208;-72
2021/10/03 11:32:16;;;;;;;7.15;6.45;;;;;;;26.51;40.89;97288.09;6216725;28;20215;-72
2021/10/03 11:35:18;;;;;;;8.27;5.88;;;;;;;26.60;40.92;97282.09;6216100;28;20212;-72
2021/10/03 11:38:20;;;;;;;6.70;6.07;;;;;;;26.52;40.49;97287.06;6266620;28;20207;-71
2021/10/03 11:41:22;;;;;;;7.47;6.50;;;;;;;26.46;40.06;97281.50;6268682;28;20191;-71
2021/10/03 11:44:24;;;;;;;7.95;7.10;;;;;;;26.40;39.78;97287.84;6269429;28;20191;-71
2021/10/03 11:47:35;;;;;;;6.38;5.88;;;;;;;26.43;39.31;97290.09;6267434;28;20187;-71
2021/10/03 11:50:50;;;;;;;9.13;6.35;;;;;;;26.65;37.89;97284.13;6268951;28;20183;-72
2021/10/03 11:53:53;;;;;;;6.63;6.03;;;;;;;26.24;37.56;97272.28;6268918;28;20199;-71
2021/10/03 11:56:55;;;;;;;7.13;6.53;;;;;;;26.27;37.81;97276.41;6268904;28;20196;-72
2021/10/03 12:00:10;;;;;;;7.05;5.82;;;;;;;26.61;37.60;97272.94;6266015;28;20215;-71
2021/10/03 12:03:12;;;;;;;6.18;5.65;;;;;;;26.83;39.33;97270.47;6267756;28;20191;-70
2021/10/03 12:06:21;;;;;;;6.43;5.82;;;;;;;26.58;37.29;97265.28;6267851;28;20206;-71
2021/10/03 12:09:27;;;;;;;7.47;6.47;;;;;;;27.00;37.56;97268.72;6268072;28;20227;-71
2021/10/03 12:13:02;;;;;;;6.78;6.22;;;;;;;26.94;36.56;97258.00;6265988;28;20643;-72
2021/10/03 12:16:12;;;;;;;7.15;6.47;;;;;;;26.87;36.02;97265.38;6254376;28;20196;-71
2021/10/03 12:19:14;;;;;;;7.03;6.43;;;;;;;26.35;36.66;97267.97;6240949;28;20196;-71
2021/10/03 12:22:16;;;;;;;6.43;5.82;;;;;;;26.14;37.96;97269.31;6242133;28;20188;-71
2021/10/03 12:25:18;;;;;;;6.38;5.85;;;;;;;26.45;37.08;97257.41;6243015;28;20218;-71
2021/10/03 12:28:20;;;;;;;6.28;5.78;;;;;;;26.63;36.75;97262.69;6243990;28;20557;-71
2021/10/03 12:31:40;;;;;;;5.97;5.47;;;;;;;26.86;36.91;97252.91;6270417;28;20725;-71
2021/10/03 12:34:52;;;;;;;6.30;5.70;;;;;;;27.35;37.08;97252.38;6270840;28;20184;-72
2021/10/03 12:38:08;;;;;;;5.82;5.25;;;;;;;27.75;36.62;97254.28;6270192;28;20211;-72
2021/10/03 12:41:12;;;;;;;6.22;5.63;;;;;;;27.65;36.08;97249.47;6273299;28;20671;-72
2021/10/03 12:44:15;;;;;;;7.38;5.18;;;;;;;27.80;36.19;97249.78;6272680;28;20199;-72
2021/10/03 12:47:18;;;;;;;5.20;4.80;;;;;;;27.99;35.24;97236.81;6271753;28;20690;-72
2021/10/03 12:50:20;;;;;;;5.35;4.85;;;;;;;28.09;36.25;97239.72;6273167;28;20187;-72
2021/10/03 12:53:22;;;;;;;5.60;5.00;;;;;;;27.39;35.49;97247.31;6273442;28;20207;-72
2021/10/03 12:56:24;;;;;;;5.15;4.65;;;;;;;27.06;35.63;97235.25;6271856;28;20205;-72
2021/10/03 12:59:26;;;;;;;5.32;4.82;;;;;;;27.55;34.89;97236.53;6273412;28;20187;-72
2021/10/03 13:02:27;;;;;;;5.50;5.00;;;;;;;27.44;34.63;97237.41;6273001;28;20207;-71
2021/10/03 13:05:40;;;;;;;6.55;4.43;;;;;;;27.48;34.50;97226.88;6273118;28;20180;-72
2021/10/03 13:08:42;;;;;;;4.55;4.15;;;;;;;27.73;34.17;97218.44;6272512;28;20245;-72
2021/10/03 13:11:44;;;;;;;5.15;4.75;;;;;;;28.16;34.16;97213.22;6271559;28;20324;-72
2021/10/03 13:14:47;;;;;;;5.13;4.38;;;;;;;28.48;33.85;97220.81;6272970;28;20194;-72
2021/10/03 13:17:49;;;;;;;4.38;3.97;;;;;;;28.83;32.66;97212.41;6260362;28;20199;-71
2021/10/03 13:20:51;;;;;;;5.20;4.70;;;;;;;28.72;32.91;97218.75;6248518;28;20191;-71
2021/10/03 13:23:54;;;;;;;3.95;3.65;;;;;;;28.58;32.69;97204.69;6247858;28;20262;-72
2021/10/03 13:26:56;;;;;;;4.25;3.85;;;;;;;29.48;31.41;97207.00;6247544;28;20756;-72
2021/10/03 13:29:58;;;;;;;4.50;4.10;;;;;;;30.64;29.55;97212.75;6268163;28;20203;-71
2021/10/03 13:33:00;;;;;;;4.40;3.83;;;;;;;31.77;29.14;97209.44;6252694;28;20211;-72
2021/10/03 13:36:04;;;;;;;4.45;4.05;;;;;;;32.87;26.75;97207.84;6256882;28;20196;-71
2021/10/03 13:39:06;;;;;;;4.22;3.75;;;;;;;32.05;27.72;97217.13;6262589;28;20192;-71
2021/10/03 13:42:08;;;;;;;4.70;3.63;;;;;;;33.61;25.73;97201.56;6247285;28;20183;-71
2021/10/03 13:45:11;;;;;;;4.25;3.65;;;;;;;34.61;24.61;97203.06;6246239;28;20282;-72
2021/10/03 13:48:13;;;;;;;3.95;3.55;;;;;;;34.90;23.94;97206.63;6247020;28;20200;-72
2021/10/03 13:51:14;;;;;;;6.55;4.18;;;;;;;33.61;25.00;97201.56;6247187;28;20184;-71
2021/10/03 13:54:16;;;;;;;3.80;3.50;;;;;;;31.40;28.23;97194.06;6247164;28;20568;-72
2021/10/03 13:57:19;;;;;;;6.25;3.90;;;;;;;28.83;32.29;97190.69;6247305;28;20646;-71
2021/10/03 14:00:21;;;;;;;4.20;3.70;;;;;;;28.18;33.53;97188.59;6262928;28;20285;-72
2021/10/03 14:03:23;;;;;;;8.30;3.58;;;;;;;27.24;35.73;97192.81;6272045;28;20187;-72
2021/10/03 14:06:25;;;;;;;4.70;4.30;;;;;;;25.91;37.71;97188.94;6271928;28;20268;-72
2021/10/03 14:09:27;;;;;;;5.00;3.95;;;;;;;25.18;39.66;97201.78;6271341;28;20227;-72
2021/10/03 14:12:29;;;;;;;5.38;4.13;;;;;;;24.75;40.46;97193.78;6271311;28;20733;-71